createdAt,value
2022-08-02T00:01:03.199Z,14.70
2022-08-02T00:02:05.685Z,15.43
2022-08-02T00:03:08.993Z,20.13
2022-08-02T00:04:11.535Z,20.92
2022-08-02T00:05:15.217Z,21.98
2022-08-02T00:06:17.504Z,20.60
2022-08-02T00:07:20.730Z,21.38
2022-08-02T00:08:23.072Z,27.27
2022-08-02T00:09:26.422Z,31.52
2022-08-02T00:10:28.726Z,38.95
2022-08-02T00:11:34.069Z,45.22
2022-08-02T00:12:36.670Z,47.95
2022-08-02T00:13:40.021Z,48.08
2022-08-02T00:14:42.482Z,52.47
2022-08-02T00:15:47.022Z,53.20
2022-08-02T00:16:49.353Z,50.85
2022-08-02T00:17:52.657Z,51.92
2022-08-02T00:18:55.132Z,51.25
2022-08-02T00:19:58.372Z,52.40
2022-08-02T00:21:00.573Z,49.60
2022-08-02T00:22:03.745Z,46.80
2022-08-02T00:23:07.061Z,49.22
2022-08-02T00:24:29.802Z,38.08
2022-08-02T00:25:32.802Z,41.25
2022-08-02T00:26:35.055Z,35.95
2022-08-02T00:27:38.316Z,29.65
2022-08-02T00:28:40.686Z,27.02
2022-08-02T00:29:53.099Z,33.53
2022-08-02T00:30:59.035Z,31.80
2022-08-02T00:32:02.478Z,24.65
2022-08-02T00:33:05.731Z,27.38
2022-08-02T00:34:28.495Z,24.65
2022-08-02T00:35:31.474Z,26.80
2022-08-02T00:36:34.731Z,28.33
2022-08-02T00:37:39.752Z,24.40
2022-08-02T00:38:43.248Z,24.95
2022-08-02T00:39:45.398Z,27.38
2022-08-02T00:40:49.079Z,22.52
2022-08-02T00:41:53.029Z,24.67
2022-08-02T00:43:04.333Z,21.73
2022-08-02T00:44:06.470Z,29.60
2022-08-02T00:45:10.460Z,25.30
2022-08-02T00:46:14.329Z,28.42
2022-08-02T00:47:19.431Z,22.58
2022-08-02T00:48:22.056Z,26.58
2022-08-02T00:49:25.218Z,24.73
2022-08-02T00:50:27.741Z,27.15
2022-08-02T00:51:30.905Z,20.52
2022-08-02T00:52:33.017Z,22.50
2022-08-02T00:53:36.458Z,24.55
2022-08-02T00:54:38.540Z,15.27
2022-08-02T00:55:41.689Z,19.00
2022-08-02T00:56:49.648Z,16.92
2022-08-02T00:57:54.918Z,18.35
2022-08-02T00:58:57.142Z,22.20
2022-08-02T01:00:00.275Z,17.48
2022-08-02T01:01:03.652Z,12.85
2022-08-02T01:02:08.390Z,11.45
2022-08-02T01:03:10.638Z,13.40
2022-08-02T01:04:15.399Z,18.42
2022-08-02T01:05:46.952Z,16.92
2022-08-02T01:06:56.092Z,13.02
2022-08-02T01:07:58.347Z,10.23
2022-08-02T01:09:02.000Z,12.95
2022-08-02T01:10:05.123Z,14.45
2022-08-02T01:11:08.679Z,14.35
2022-08-02T01:12:12.069Z,17.85
2022-08-02T01:13:15.589Z,15.95
2022-08-02T01:14:18.877Z,15.50
2022-08-02T01:15:23.632Z,18.23
2022-08-02T01:16:43.253Z,14.68
2022-08-02T01:17:53.743Z,16.17
2022-08-02T01:19:01.664Z,23.92
2022-08-02T01:20:13.296Z,10.93
2022-08-02T01:21:32.785Z,14.20
2022-08-02T01:24:21.160Z,12.57
2022-08-02T01:25:46.080Z,16.02
2022-08-02T01:26:52.990Z,14.43
2022-08-02T01:28:37.367Z,10.82
2022-08-02T01:29:43.827Z,12.30
2022-08-02T01:30:50.026Z,10.40
2022-08-02T01:32:00.467Z,12.38
2022-08-02T01:33:06.900Z,15.05
2022-08-02T01:34:17.741Z,10.95
2022-08-02T01:35:25.343Z,14.00
2022-08-02T01:36:34.195Z,8.95
2022-08-02T01:37:43.306Z,10.95
2022-08-02T01:38:49.683Z,13.98
2022-08-02T01:39:57.843Z,16.85
2022-08-02T01:41:03.928Z,12.98
2022-08-02T01:42:08.729Z,10.75
2022-08-02T01:43:12.604Z,8.73
2022-08-02T01:44:20.095Z,8.23
2022-08-02T01:45:33.239Z,10.27
2022-08-02T01:46:39.687Z,12.02
2022-08-02T01:47:44.300Z,15.27
2022-08-02T01:48:49.729Z,14.77
2022-08-02T01:49:54.685Z,7.38
2022-08-02T01:51:00.269Z,13.30
2022-08-02T01:52:22.465Z,11.00
2022-08-02T01:53:29.159Z,13.65
2022-08-02T01:54:33.720Z,10.48
2022-08-02T01:55:57.555Z,12.65
2022-08-02T01:57:03.087Z,9.35
2022-08-02T01:58:09.196Z,13.20
2022-08-02T01:59:14.176Z,15.18
2022-08-02T02:00:20.907Z,11.63
2022-08-02T02:01:23.983Z,11.75
2022-08-02T02:02:31.804Z,15.27
2022-08-02T02:03:35.775Z,8.43
2022-08-02T02:04:46.943Z,6.32
2022-08-02T02:05:50.563Z,13.00
2022-08-02T02:06:55.036Z,11.57
2022-08-02T02:07:59.036Z,9.45
2022-08-02T02:09:04.018Z,19.05
2022-08-02T02:10:09.206Z,9.07
2022-08-02T02:12:14.713Z,10.23
2022-08-02T02:12:39.491Z,14.50
2022-08-02T02:13:43.807Z,9.82
2022-08-02T02:14:51.393Z,9.63
2022-08-02T02:15:58.685Z,11.43
2022-08-02T02:17:02.994Z,8.80
2022-08-02T02:18:13.281Z,10.93
2022-08-02T02:19:20.917Z,10.23
2022-08-02T02:20:25.321Z,6.65
2022-08-02T02:21:27.504Z,8.20
2022-08-02T02:22:30.816Z,12.55
2022-08-02T02:23:35.598Z,12.10
2022-08-02T02:24:39.209Z,13.15
2022-08-02T02:25:46.451Z,12.38
2022-08-02T02:26:52.561Z,9.75
2022-08-02T02:28:00.017Z,10.70
2022-08-02T02:29:04.325Z,9.60
2022-08-02T02:30:07.964Z,10.57
2022-08-02T02:31:15.267Z,11.30
2022-08-02T02:32:18.799Z,11.32
2022-08-02T02:33:27.670Z,8.00
2022-08-02T02:34:34.238Z,7.60
2022-08-02T02:35:39.023Z,9.65
2022-08-02T02:36:45.867Z,10.60
2022-08-02T02:37:50.818Z,11.23
2022-08-02T02:38:54.333Z,15.27
2022-08-02T02:39:59.301Z,10.02
2022-08-02T02:41:03.400Z,9.98
2022-08-02T02:42:10.162Z,9.82
2022-08-02T02:43:12.942Z,10.63
2022-08-02T02:44:20.504Z,12.88
2022-08-02T02:45:24.292Z,11.18
2022-08-02T02:46:31.182Z,7.72
2022-08-02T02:47:40.743Z,7.80
2022-08-02T02:48:45.473Z,7.35
2022-08-02T02:49:49.163Z,10.05
2022-08-02T02:50:52.651Z,11.20
2022-08-02T02:51:56.134Z,10.93
2022-08-02T02:53:00.318Z,8.52
2022-08-02T02:54:30.715Z,11.68
2022-08-02T02:55:27.855Z,9.40
2022-08-02T02:56:30.514Z,9.98
2022-08-02T02:57:34.434Z,8.60
2022-08-02T02:58:38.298Z,13.15
2022-08-02T02:59:49.195Z,9.98
2022-08-02T03:01:10.779Z,6.75
2022-08-02T03:02:15.933Z,13.48
2022-08-02T03:03:19.732Z,9.73
2022-08-02T03:04:26.181Z,13.65
2022-08-02T03:05:28.550Z,14.68
2022-08-02T03:06:32.039Z,10.63
2022-08-02T03:07:34.648Z,10.38
2022-08-02T03:08:37.856Z,7.60
2022-08-02T03:09:40.029Z,11.55
2022-08-02T03:10:44.202Z,13.15
2022-08-02T03:11:46.766Z,12.73
2022-08-02T03:12:50.548Z,9.25
2022-08-02T03:13:53.514Z,11.55
2022-08-02T03:14:56.796Z,6.15
2022-08-02T03:16:02.026Z,9.15
2022-08-02T03:17:05.322Z,9.15
2022-08-02T03:18:09.817Z,12.70
2022-08-02T03:19:12.143Z,10.57
2022-08-02T03:20:17.731Z,11.18
2022-08-02T03:21:19.916Z,11.65
2022-08-02T03:22:23.049Z,9.88
2022-08-02T03:23:25.140Z,11.55
2022-08-02T03:24:28.583Z,7.22
2022-08-02T03:25:30.843Z,12.27
2022-08-02T03:26:33.965Z,9.68
2022-08-02T03:27:36.131Z,15.23
2022-08-02T03:28:39.488Z,8.70
2022-08-02T03:29:41.617Z,10.55
2022-08-02T03:30:44.779Z,10.07
2022-08-02T03:31:46.962Z,8.60
2022-08-02T03:32:50.259Z,9.98
2022-08-02T03:33:54.255Z,9.57
2022-08-02T03:34:57.911Z,17.05
2022-08-02T03:36:05.343Z,11.52
2022-08-02T03:37:10.415Z,8.77
2022-08-02T03:38:13.635Z,10.57
2022-08-02T03:39:18.861Z,8.15
2022-08-02T03:40:21.744Z,11.13
2022-08-02T03:41:25.686Z,10.40
2022-08-02T03:42:28.889Z,13.25
2022-08-02T03:43:32.449Z,10.55
2022-08-02T03:44:35.597Z,10.43
2022-08-02T03:45:41.067Z,11.52
2022-08-02T03:46:44.616Z,12.63
2022-08-02T03:47:48.056Z,7.72
2022-08-02T03:48:51.708Z,10.07
2022-08-02T03:49:57.148Z,8.27
2022-08-02T03:50:59.994Z,6.43
2022-08-02T03:52:04.072Z,10.68
2022-08-02T03:53:06.595Z,14.60
2022-08-02T03:54:34.806Z,12.35
2022-08-02T03:55:48.726Z,11.50
2022-08-02T03:56:50.994Z,13.27
2022-08-02T03:57:54.309Z,10.43
2022-08-02T03:59:07.027Z,9.05
2022-08-02T04:00:13.094Z,11.73
2022-08-02T04:01:17.535Z,10.57
2022-08-02T04:02:19.702Z,10.25
2022-08-02T04:03:23.145Z,11.52
2022-08-02T04:04:25.299Z,8.60
2022-08-02T04:05:29.784Z,13.23
2022-08-02T04:06:32.208Z,12.25
2022-08-02T04:08:34.178Z,11.88
2022-08-02T04:08:58.545Z,11.70
2022-08-02T04:10:00.819Z,14.07
2022-08-02T04:11:21.429Z,9.65
2022-08-02T04:12:24.656Z,9.70
2022-08-02T04:13:31.850Z,10.40
2022-08-02T04:14:39.318Z,11.05
2022-08-02T04:15:41.865Z,9.07
2022-08-02T04:16:48.012Z,15.10
2022-08-02T04:17:53.017Z,12.27
2022-08-02T04:19:04.834Z,12.38
2022-08-02T04:20:13.015Z,9.98
2022-08-02T04:21:20.570Z,8.98
2022-08-02T04:22:28.669Z,12.75
2022-08-02T04:23:33.222Z,15.80
2022-08-02T04:24:40.687Z,7.82
2022-08-02T04:25:44.485Z,12.52
2022-08-02T04:26:49.904Z,13.90
2022-08-02T04:28:17.797Z,12.77
2022-08-02T04:29:18.255Z,12.55
2022-08-02T04:30:21.498Z,11.70
2022-08-02T04:31:25.387Z,10.13
2022-08-02T04:32:28.000Z,11.95
2022-08-02T04:33:32.284Z,10.88
2022-08-02T04:34:34.623Z,10.82
2022-08-02T04:35:37.921Z,10.77
2022-08-02T04:36:41.540Z,13.75
2022-08-02T04:38:05.575Z,14.00
2022-08-02T04:39:08.507Z,13.05
2022-08-02T04:40:12.156Z,9.27
2022-08-02T04:41:15.697Z,13.00
2022-08-02T04:42:22.010Z,11.88
2022-08-02T04:43:25.498Z,9.40
2022-08-02T04:44:28.669Z,11.35
2022-08-02T04:45:31.086Z,8.73
2022-08-02T04:46:34.628Z,11.60
2022-08-02T04:47:54.348Z,16.77
2022-08-02T04:49:00.116Z,13.25
2022-08-02T04:50:04.785Z,10.32
2022-08-02T04:51:07.911Z,13.32
2022-08-02T04:52:11.701Z,9.93
2022-08-02T04:53:15.104Z,11.52
2022-08-02T04:54:18.315Z,14.80
2022-08-02T04:55:20.529Z,14.10
2022-08-02T04:56:25.366Z,13.45
2022-08-02T04:57:52.373Z,13.45
2022-08-02T04:58:56.276Z,16.45
2022-08-02T04:59:58.493Z,12.77
2022-08-02T05:01:01.660Z,10.90
2022-08-02T05:02:03.884Z,10.75
2022-08-02T05:03:07.085Z,11.40
2022-08-02T05:04:09.335Z,14.07
2022-08-02T05:05:12.486Z,13.82
2022-08-02T05:06:19.248Z,10.95
2022-08-02T05:07:24.247Z,11.35
2022-08-02T05:08:26.435Z,13.70
2022-08-02T05:09:29.574Z,11.68
2022-08-02T05:10:31.756Z,9.75
2022-08-02T05:11:36.588Z,7.75
2022-08-02T05:12:39.682Z,13.38
2022-08-02T05:13:58.495Z,9.10
2022-08-02T05:15:02.636Z,9.68
2022-08-02T05:16:05.570Z,14.30
2022-08-02T05:17:08.672Z,10.55
2022-08-02T05:18:12.381Z,11.00
2022-08-02T05:19:16.559Z,11.88
2022-08-02T05:20:19.499Z,9.35
2022-08-02T05:21:22.621Z,8.30
2022-08-02T05:22:26.250Z,14.70
2022-08-02T05:23:29.457Z,14.57
2022-08-02T05:24:31.634Z,10.80
2022-08-02T05:25:34.791Z,16.63
2022-08-02T05:26:36.906Z,9.20
2022-08-02T05:27:40.072Z,10.82
2022-08-02T05:28:43.227Z,11.73
2022-08-02T05:29:53.031Z,11.48
2022-08-02T05:30:57.372Z,14.40
2022-08-02T05:31:59.544Z,12.10
2022-08-02T05:33:02.665Z,13.60
2022-08-02T05:34:07.573Z,10.68
2022-08-02T05:35:15.138Z,15.45
2022-08-02T05:36:17.294Z,11.82
2022-08-02T05:37:20.980Z,12.93
2022-08-02T05:38:26.148Z,12.38
2022-08-02T05:39:31.924Z,15.63
2022-08-02T05:40:34.107Z,11.45
2022-08-02T05:41:37.293Z,17.17
2022-08-02T05:42:39.414Z,14.32
2022-08-02T05:43:42.481Z,13.57
2022-08-02T05:44:44.670Z,11.07
2022-08-02T05:45:47.732Z,11.00
2022-08-02T05:46:49.887Z,13.18
2022-08-02T05:47:53.658Z,15.77
2022-08-02T05:48:56.031Z,10.93
2022-08-02T05:49:59.630Z,12.35
2022-08-02T05:51:05.680Z,11.15
2022-08-02T05:52:16.039Z,12.90
2022-08-02T05:53:29.961Z,10.05
2022-08-02T05:54:40.253Z,7.70
2022-08-02T05:55:49.270Z,9.63
2022-08-02T05:56:55.065Z,9.73
2022-08-02T05:58:03.951Z,14.05
2022-08-02T05:59:13.948Z,11.98
2022-08-02T06:00:18.104Z,10.15
2022-08-02T06:01:29.725Z,14.48
2022-08-02T06:02:45.246Z,15.52
2022-08-02T06:03:52.233Z,12.90
2022-08-02T06:05:00.634Z,7.95
2022-08-02T06:06:07.527Z,16.85
2022-08-02T06:07:12.030Z,8.98
2022-08-02T06:08:15.185Z,8.25
2022-08-02T06:09:23.028Z,15.07
2022-08-02T06:10:30.566Z,10.30
2022-08-02T06:11:36.930Z,8.38
2022-08-02T06:12:46.697Z,9.60
2022-08-02T06:13:49.377Z,9.02
2022-08-02T06:14:54.644Z,15.75
2022-08-02T06:16:00.945Z,11.07
2022-08-02T06:17:05.207Z,10.45
2022-08-02T06:18:09.130Z,13.07
2022-08-02T06:19:13.985Z,14.85
2022-08-02T06:20:16.707Z,14.90
2022-08-02T06:22:32.244Z,12.40
2022-08-02T06:22:46.433Z,12.30
2022-08-02T06:23:57.793Z,9.23
2022-08-02T06:25:04.519Z,11.95
2022-08-02T06:26:09.039Z,11.63
2022-08-02T06:27:13.520Z,13.93
2022-08-02T06:28:18.087Z,15.25
2022-08-02T06:29:21.077Z,13.30
2022-08-02T06:30:26.909Z,14.55
2022-08-02T06:31:30.578Z,12.00
2022-08-02T06:32:33.582Z,16.73
2022-08-02T06:33:36.843Z,18.63
2022-08-02T06:34:39.735Z,10.02
2022-08-02T06:35:47.595Z,16.75
2022-08-02T06:36:55.643Z,11.63
2022-08-02T06:38:01.901Z,16.65
2022-08-02T06:39:09.517Z,13.18
2022-08-02T06:40:24.698Z,14.40
2022-08-02T06:41:29.430Z,10.68
2022-08-02T06:42:43.562Z,17.65
2022-08-02T06:43:53.706Z,9.93
2022-08-02T06:44:57.994Z,11.57
2022-08-02T06:46:37.713Z,15.38
2022-08-02T06:47:24.836Z,14.88
2022-08-02T06:48:28.056Z,10.88
2022-08-02T06:49:51.964Z,10.90
2022-08-02T06:50:53.581Z,12.23
2022-08-02T06:51:55.810Z,12.35
2022-08-02T06:52:59.018Z,15.60
2022-08-02T06:54:01.309Z,12.05
2022-08-02T06:55:06.796Z,15.18
2022-08-02T06:56:10.479Z,10.90
2022-08-02T06:57:14.536Z,13.15
2022-08-02T06:58:17.746Z,9.95
2022-08-02T06:59:19.900Z,11.00
2022-08-02T07:00:23.041Z,15.68
2022-08-02T07:01:25.362Z,10.23
2022-08-02T07:02:28.589Z,10.18
2022-08-02T07:03:31.113Z,12.07
2022-08-02T07:04:34.970Z,13.23
2022-08-02T07:05:38.662Z,10.30
2022-08-02T07:06:40.871Z,15.02
2022-08-02T07:07:44.101Z,10.25
2022-08-02T07:09:04.915Z,9.80
2022-08-02T07:10:10.217Z,12.80
2022-08-02T07:11:14.762Z,9.30
2022-08-02T07:12:16.982Z,13.60
2022-08-02T07:13:20.171Z,13.32
2022-08-02T07:14:22.319Z,12.88
2022-08-02T07:15:25.544Z,10.30
2022-08-02T07:16:27.695Z,10.70
2022-08-02T07:17:31.281Z,11.50
2022-08-02T07:18:35.101Z,11.10
2022-08-02T07:19:38.615Z,15.70
2022-08-02T07:20:41.044Z,9.80
2022-08-02T07:21:56.609Z,10.57
2022-08-02T07:23:02.832Z,7.95
2022-08-02T07:24:05.379Z,15.00
2022-08-02T07:25:09.605Z,10.90
2022-08-02T07:26:13.121Z,16.23
2022-08-02T07:27:16.368Z,12.35
2022-08-02T07:28:24.019Z,7.20
2022-08-02T07:29:27.042Z,9.73
2022-08-02T07:30:36.257Z,14.32
2022-08-02T07:31:38.454Z,8.77
2022-08-02T07:32:44.649Z,9.90
2022-08-02T07:33:47.188Z,8.75
2022-08-02T07:34:53.494Z,12.00
2022-08-02T07:35:58.768Z,11.23
2022-08-02T07:37:03.962Z,10.90
2022-08-02T07:38:09.277Z,8.75
2022-08-02T07:39:11.451Z,9.07
2022-08-02T07:40:19.876Z,8.68
2022-08-02T07:41:25.946Z,9.25
2022-08-02T07:42:29.476Z,7.10
2022-08-02T07:43:32.682Z,11.95
2022-08-02T07:44:34.916Z,12.00
2022-08-02T07:45:45.792Z,13.05
2022-08-02T07:46:59.548Z,9.48
2022-08-02T07:48:02.942Z,9.60
2022-08-02T07:49:05.148Z,8.80
2022-08-02T07:50:09.860Z,11.82
2022-08-02T07:51:16.987Z,11.45
2022-08-02T07:52:20.502Z,9.48
2022-08-02T07:53:30.638Z,10.82
2022-08-02T07:54:47.289Z,9.40
2022-08-02T07:55:50.456Z,7.88
2022-08-02T07:56:58.372Z,12.70
2022-08-02T07:58:02.462Z,7.55
2022-08-02T07:59:05.226Z,10.52
2022-08-02T08:00:09.767Z,16.42
2022-08-02T08:01:14.719Z,8.90
2022-08-02T08:02:17.910Z,8.48
2022-08-02T08:03:20.403Z,6.22
2022-08-02T08:04:23.714Z,9.27
2022-08-02T08:05:25.857Z,8.98
2022-08-02T08:06:29.478Z,13.68
2022-08-02T08:07:31.695Z,11.65
2022-08-02T08:08:35.759Z,9.63
2022-08-02T08:09:41.201Z,14.90
2022-08-02T08:10:43.524Z,9.05
2022-08-02T08:11:46.638Z,9.07
2022-08-02T08:12:50.227Z,10.27
2022-08-02T08:13:53.413Z,9.55
2022-08-02T08:14:55.765Z,13.65
2022-08-02T08:15:58.984Z,8.68
2022-08-02T08:17:02.442Z,13.45
2022-08-02T08:18:04.730Z,10.05
2022-08-02T08:19:07.990Z,8.02
2022-08-02T08:20:15.418Z,8.15
2022-08-02T08:21:19.241Z,6.72
2022-08-02T08:22:21.611Z,11.68
2022-08-02T08:23:24.894Z,11.25
2022-08-02T08:24:27.188Z,12.43
2022-08-02T08:25:30.366Z,11.18
2022-08-02T08:26:32.634Z,11.15
2022-08-02T08:27:35.848Z,11.38
2022-08-02T08:28:40.393Z,7.00
2022-08-02T08:29:43.007Z,10.90
2022-08-02T08:30:47.404Z,8.50
2022-08-02T08:31:49.822Z,13.77
2022-08-02T08:32:53.115Z,12.32
2022-08-02T08:33:56.901Z,9.60
2022-08-02T08:34:59.469Z,9.35
2022-08-02T08:36:02.809Z,9.07
2022-08-02T08:37:06.372Z,9.57
2022-08-02T08:38:09.696Z,13.40
2022-08-02T08:39:12.886Z,7.72
2022-08-02T08:40:19.327Z,9.30
2022-08-02T08:41:22.978Z,9.30
2022-08-02T08:42:25.199Z,9.20
2022-08-02T08:43:28.364Z,8.90
2022-08-02T08:44:33.241Z,7.05
2022-08-02T08:45:36.881Z,8.30
2022-08-02T08:46:43.406Z,8.00
2022-08-02T08:47:52.212Z,7.80
2022-08-02T08:49:01.169Z,12.88
2022-08-02T08:50:05.860Z,10.60
2022-08-02T08:51:12.914Z,11.38
2022-08-02T08:52:16.510Z,11.07
2022-08-02T08:53:21.400Z,9.80
2022-08-02T08:54:42.156Z,9.15
2022-08-02T08:55:44.931Z,7.80
2022-08-02T08:56:48.504Z,8.20
2022-08-02T08:57:51.354Z,10.27
2022-08-02T08:58:54.492Z,4.75
2022-08-02T08:59:58.448Z,9.63
2022-08-02T09:01:01.741Z,9.27
2022-08-02T09:02:16.833Z,8.68
2022-08-02T09:03:24.752Z,8.70
2022-08-02T09:04:27.161Z,8.77
2022-08-02T09:05:30.313Z,8.32
2022-08-02T09:06:32.528Z,8.48
2022-08-02T09:07:35.726Z,8.15
2022-08-02T09:08:38.953Z,5.75
2022-08-02T09:09:41.148Z,9.75
2022-08-02T09:10:46.076Z,8.55
2022-08-02T09:11:49.336Z,14.43
2022-08-02T09:13:37.504Z,5.68
2022-08-02T09:14:32.759Z,7.15
2022-08-02T09:15:36.495Z,9.18
2022-08-02T09:16:41.395Z,13.63
2022-08-02T09:17:50.897Z,9.45
2022-08-02T09:18:54.054Z,8.38
2022-08-02T09:20:07.949Z,6.93
2022-08-02T09:21:11.487Z,8.30
2022-08-02T09:22:16.278Z,9.95
2022-08-02T09:23:18.950Z,9.02
2022-08-02T09:24:23.748Z,8.70
2022-08-02T09:25:25.926Z,6.63
2022-08-02T09:26:29.431Z,7.65
2022-08-02T09:27:37.821Z,9.55
2022-08-02T09:28:41.662Z,6.95
2022-08-02T09:30:11.656Z,6.78
2022-08-02T09:31:13.558Z,4.90
2022-08-02T09:32:17.948Z,4.53
2022-08-02T09:33:27.462Z,7.43
2022-08-02T09:34:45.277Z,6.65
2022-08-02T09:36:06.548Z,8.32
2022-08-02T09:37:23.316Z,6.63
2022-08-02T09:38:26.464Z,7.20
2022-08-02T09:39:47.598Z,9.40
2022-08-02T09:40:50.156Z,6.47
2022-08-02T09:41:53.397Z,10.32
2022-08-02T09:42:59.339Z,9.52
2022-08-02T09:44:06.435Z,7.10
2022-08-02T09:45:10.296Z,6.65
2022-08-02T09:46:17.174Z,5.43
2022-08-02T09:47:19.295Z,4.40
2022-08-02T09:48:22.776Z,8.85
2022-08-02T09:49:26.149Z,6.65
2022-08-02T09:50:29.627Z,6.82
2022-08-02T09:51:34.759Z,7.13
2022-08-02T09:52:43.697Z,7.45
2022-08-02T09:53:48.741Z,6.90
2022-08-02T09:54:52.178Z,5.55
2022-08-02T09:55:56.204Z,7.85
2022-08-02T09:57:01.076Z,5.65
2022-08-02T09:58:19.097Z,8.93
2022-08-02T09:59:25.360Z,6.88
2022-08-02T10:00:50.878Z,9.77
2022-08-02T10:02:01.273Z,10.63
2022-08-02T10:03:09.418Z,6.10
2022-08-02T10:04:22.519Z,8.30
2022-08-02T10:05:30.129Z,9.32
2022-08-02T10:06:38.756Z,6.80
2022-08-02T10:07:41.989Z,4.97
2022-08-02T10:08:45.479Z,10.43
2022-08-02T10:09:49.173Z,7.13
2022-08-02T10:11:00.375Z,6.20
2022-08-02T10:12:04.871Z,8.45
2022-08-02T10:13:07.369Z,10.23
2022-08-02T10:14:11.890Z,7.47
2022-08-02T10:15:14.868Z,7.32
2022-08-02T10:16:19.751Z,12.65
2022-08-02T10:17:25.337Z,5.82
2022-08-02T10:18:38.848Z,8.60
2022-08-02T10:20:00.067Z,5.10
2022-08-02T10:21:07.567Z,6.53
2022-08-02T10:22:12.779Z,8.77
2022-08-02T10:23:16.160Z,8.27
2022-08-02T10:24:22.210Z,4.63
2022-08-02T10:25:25.039Z,4.70
2022-08-02T10:26:28.568Z,8.13
2022-08-02T10:27:48.922Z,5.40
2022-08-02T10:28:55.353Z,7.78
2022-08-02T10:30:00.713Z,9.73
2022-08-02T10:31:06.499Z,6.90
2022-08-02T10:32:13.007Z,9.27
2022-08-02T10:33:20.176Z,10.48
2022-08-02T10:34:31.563Z,8.05
2022-08-02T10:35:37.700Z,9.20
2022-08-02T10:36:42.834Z,8.02
2022-08-02T10:37:47.920Z,12.07
2022-08-02T10:38:51.531Z,6.97
2022-08-02T10:39:56.557Z,7.95
2022-08-02T10:40:59.781Z,4.00
2022-08-02T10:42:02.930Z,7.68
2022-08-02T10:43:05.060Z,7.40
2022-08-02T10:44:08.287Z,9.00
2022-08-02T10:45:28.316Z,8.55
2022-08-02T10:46:33.293Z,5.90
2022-08-02T10:47:36.469Z,7.00
2022-08-02T10:49:36.138Z,7.22
2022-08-02T10:50:55.734Z,8.38
2022-08-02T10:52:07.071Z,12.07
2022-08-02T10:53:29.781Z,7.15
2022-08-02T10:54:34.513Z,5.82
2022-08-02T10:55:46.589Z,7.30
2022-08-02T10:56:51.102Z,9.82
2022-08-02T10:58:17.733Z,9.32
2022-08-02T10:59:29.247Z,5.75
2022-08-02T11:00:32.429Z,5.13
2022-08-02T11:01:43.895Z,8.73
2022-08-02T11:02:53.306Z,9.07
2022-08-02T11:03:59.541Z,7.07
2022-08-02T11:05:06.972Z,7.00
2022-08-02T11:06:24.986Z,6.15
2022-08-02T11:07:36.401Z,7.38
2022-08-02T11:08:40.199Z,7.28
2022-08-02T11:09:42.947Z,5.20
2022-08-02T11:10:46.528Z,4.55
2022-08-02T11:12:01.447Z,6.53
2022-08-02T11:13:10.493Z,5.18
2022-08-02T11:14:14.763Z,7.53
2022-08-02T11:15:20.032Z,8.27
2022-08-02T11:16:23.191Z,7.00
2022-08-02T11:17:28.902Z,9.75
2022-08-02T11:19:04.055Z,4.85
2022-08-02T11:20:19.015Z,6.45
2022-08-02T11:21:24.771Z,7.65
2022-08-02T11:22:28.069Z,4.28
2022-08-02T11:23:44.266Z,9.52
2022-08-02T11:24:49.313Z,6.05
2022-08-02T11:26:03.554Z,7.25
2022-08-02T11:27:09.034Z,4.97
2022-08-02T11:28:12.714Z,7.22
2022-08-02T11:29:16.346Z,5.25
2022-08-02T11:30:20.572Z,6.63
2022-08-02T11:32:36.157Z,11.68
2022-08-02T11:33:38.852Z,12.43
2022-08-02T11:34:43.545Z,16.98
2022-08-02T11:35:47.181Z,7.55
2022-08-02T11:36:52.743Z,10.40
2022-08-02T11:37:55.352Z,6.05
2022-08-02T11:39:10.709Z,9.20
2022-08-02T11:40:18.994Z,6.90
2022-08-02T11:41:45.810Z,3.70
2022-08-02T11:42:50.399Z,4.82
2022-08-02T11:43:54.851Z,12.30
2022-08-02T11:44:58.102Z,5.90
2022-08-02T11:46:03.898Z,6.45
2022-08-02T11:47:08.411Z,5.95
2022-08-02T11:48:10.741Z,6.82
2022-08-02T11:49:16.173Z,3.80
2022-08-02T11:50:29.950Z,5.38
2022-08-02T11:51:34.148Z,6.15
2022-08-02T11:52:39.020Z,6.93
2022-08-02T11:53:50.162Z,9.07
2022-08-02T11:54:53.363Z,3.13
2022-08-02T11:55:57.436Z,6.63
2022-08-02T11:57:19.293Z,6.18
2022-08-02T11:58:23.442Z,6.93
2022-08-02T11:59:25.695Z,7.78
2022-08-02T12:00:30.579Z,7.15
2022-08-02T12:01:44.788Z,14.98
2022-08-02T12:02:49.862Z,5.57
2022-08-02T12:03:52.262Z,5.57
2022-08-02T12:04:58.422Z,10.45
2022-08-02T12:06:06.419Z,16.27
2022-08-02T12:07:15.334Z,21.55
2022-08-02T12:08:19.195Z,15.90
2022-08-02T12:09:27.603Z,3.45
2022-08-02T12:10:31.138Z,7.40
2022-08-02T12:11:39.175Z,7.45
2022-08-02T12:12:49.758Z,11.05
2022-08-02T12:13:57.064Z,11.65
2022-08-02T12:15:00.763Z,7.45
2022-08-02T12:16:25.750Z,6.78
2022-08-02T12:17:50.086Z,9.38
2022-08-02T12:19:22.353Z,6.45
2022-08-02T12:20:37.363Z,5.00
2022-08-02T12:21:40.682Z,6.88
2022-08-02T12:22:45.520Z,6.10
2022-08-02T12:24:00.131Z,5.32
2022-08-02T12:25:33.466Z,8.38
2022-08-02T12:26:44.451Z,8.20
2022-08-02T12:27:47.897Z,8.13
2022-08-02T12:28:57.526Z,5.55
2022-08-02T12:30:03.667Z,7.22
2022-08-02T12:31:08.436Z,5.63
2022-08-02T12:32:25.417Z,4.95
2022-08-02T12:33:30.369Z,5.55
2022-08-02T12:34:35.077Z,3.85
2022-08-02T12:35:37.337Z,5.55
2022-08-02T12:36:40.692Z,5.47
2022-08-02T12:37:47.561Z,7.82
2022-08-02T12:38:53.133Z,6.75
2022-08-02T12:39:56.320Z,4.90
2022-08-02T12:41:30.263Z,9.48
2022-08-02T12:42:46.525Z,4.93
2022-08-02T12:43:50.983Z,5.70
2022-08-02T12:44:54.560Z,5.75
2022-08-02T12:45:57.811Z,5.32
2022-08-02T12:47:02.026Z,3.33
2022-08-02T12:48:07.287Z,5.35
2022-08-02T12:49:18.398Z,4.05
2022-08-02T12:50:25.591Z,5.60
2022-08-02T12:51:50.955Z,8.20
2022-08-02T12:53:07.288Z,5.72
2022-08-02T12:54:18.075Z,5.65
2022-08-02T12:55:24.437Z,11.57
2022-08-02T12:56:28.389Z,19.35
2022-08-02T12:57:31.571Z,8.32
2022-08-02T12:58:49.658Z,8.77
2022-08-02T12:59:54.579Z,6.38
2022-08-02T13:00:58.894Z,6.15
2022-08-02T13:02:04.189Z,3.20
2022-08-02T13:04:07.862Z,4.97
2022-08-02T13:04:33.040Z,5.95
2022-08-02T13:05:56.572Z,4.20
2022-08-02T13:07:00.722Z,6.00
2022-08-02T13:08:05.006Z,7.00
2022-08-02T13:09:16.881Z,4.15
2022-08-02T13:10:21.596Z,4.30
2022-08-02T13:11:23.732Z,6.00
2022-08-02T13:12:26.881Z,4.47
2022-08-02T13:13:29.069Z,3.80
2022-08-02T13:14:39.868Z,5.68
2022-08-02T13:15:48.858Z,5.18
2022-08-02T13:16:54.091Z,4.45
2022-08-02T13:17:56.864Z,5.00
2022-08-02T13:19:00.291Z,3.13
2022-08-02T13:20:04.110Z,3.20
2022-08-02T13:21:07.377Z,4.25
2022-08-02T13:22:18.814Z,3.97
2022-08-02T13:23:23.390Z,8.38
2022-08-02T13:24:37.988Z,7.00
2022-08-02T13:25:42.882Z,8.23
2022-08-02T13:26:45.519Z,3.60
2022-08-02T13:27:48.643Z,2.28
2022-08-02T13:28:50.738Z,4.88
2022-08-02T13:29:55.377Z,16.38
2022-08-02T13:31:06.070Z,22.70
2022-08-02T13:32:21.205Z,9.98
2022-08-02T13:33:23.581Z,3.35
2022-08-02T13:34:27.286Z,5.40
2022-08-02T13:35:30.737Z,3.95
2022-08-02T13:36:33.914Z,6.47
2022-08-02T13:37:40.128Z,5.88
2022-08-02T13:38:43.966Z,6.63
2022-08-02T13:40:05.446Z,6.95
2022-08-02T13:41:10.730Z,10.77
2022-08-02T13:42:16.930Z,11.93
2022-08-02T13:43:20.343Z,5.95
2022-08-02T13:44:22.858Z,20.15
2022-08-02T13:45:26.341Z,22.02
2022-08-02T13:46:29.544Z,26.83
2022-08-02T13:47:36.270Z,19.40
2022-08-02T13:48:56.057Z,12.52
2022-08-02T13:49:58.325Z,6.72
2022-08-02T13:51:01.579Z,6.75
2022-08-02T13:52:03.769Z,17.77
2022-08-02T13:53:07.134Z,12.65
2022-08-02T13:54:10.728Z,26.70
2022-08-02T13:55:13.871Z,9.77
2022-08-02T13:56:18.081Z,9.82
2022-08-02T13:57:21.938Z,11.38
2022-08-02T13:58:25.168Z,11.15
2022-08-02T13:59:58.480Z,8.38
2022-08-02T14:00:50.569Z,6.18
2022-08-02T14:01:52.851Z,6.13
2022-08-02T14:02:56.130Z,5.88
2022-08-02T14:04:07.383Z,4.85
2022-08-02T14:05:12.299Z,4.53
2022-08-02T14:06:15.423Z,3.53
2022-08-02T14:07:17.645Z,4.53
2022-08-02T14:08:22.890Z,5.32
2022-08-02T14:09:27.641Z,4.38
2022-08-02T14:10:30.456Z,6.47
2022-08-02T14:11:34.187Z,6.38
2022-08-02T14:12:38.068Z,3.78
2022-08-02T14:13:40.333Z,3.33
2022-08-02T14:14:43.498Z,4.00
2022-08-02T14:15:46.108Z,4.95
2022-08-02T14:16:49.306Z,3.63
2022-08-02T14:17:51.459Z,5.00
2022-08-02T14:18:57.301Z,3.22
2022-08-02T14:20:00.466Z,4.03
2022-08-02T14:21:02.953Z,4.60
2022-08-02T14:22:11.153Z,4.00
2022-08-02T14:23:15.519Z,4.70
2022-08-02T14:24:18.942Z,4.20
2022-08-02T14:25:23.535Z,3.47
2022-08-02T14:26:27.097Z,4.53
2022-08-02T14:27:31.565Z,6.40
2022-08-02T14:28:42.711Z,5.07
2022-08-02T14:29:44.900Z,4.60
2022-08-02T14:30:48.048Z,3.58
2022-08-02T14:31:51.697Z,6.80
2022-08-02T14:32:55.170Z,3.40